sensor_id;sensor_type;location;lat;lon;timestamp;temperature;humidity
32749;DHT22;19119;52.474;13.710;2023-12-20T00:01:21;6.50;99.90
32749;DHT22;19119;52.474;13.710;2023-12-20T00:03:47;6.50;99.90
32749;DHT22;19119;52.474;13.710;2023-12-20T00:06:12;6.50;99.90
32749;DHT22;19119;52.474;13.710;2023-12-20T00:08:38;6.50;99.90
32749;DHT22;19119;52.474;13.710;2023-12-20T00:11:03;6.50;99.90
32749;DHT22;19119;52.474;13.710;2023-12-20T00:13:28;6.50;99.90
32749;DHT22;19119;52.474;13.710;2023-12-20T00:15:54;6.50;99.90
32749;DHT22;19119;52.474;13.710;2023-12-20T00:18:19;6.50;99.90
32749;DHT22;19119;52.474;13.710;2023-12-20T00:20:45;6.60;99.90
32749;DHT22;19119;52.474;13.710;2023-12-20T00:23:10;6.60;99.90
32749;DHT22;19119;52.474;13.710;2023-12-20T00:25:35;6.60;99.90
32749;DHT22;19119;52.474;13.710;2023-12-20T00:28:01;6.60;99.90
32749;DHT22;19119;52.474;13.710;2023-12-20T00:30:27;6.60;99.90
32749;DHT22;19119;52.474;13.710;2023-12-20T00:32:53;6.60;99.90
32749;DHT22;19119;52.474;13.710;2023-12-20T00:35:18;6.60;99.90
32749;DHT22;19119;52.474;13.710;2023-12-20T00:37:44;6.60;99.90
32749;DHT22;19119;52.474;13.710;2023-12-20T00:40:09;6.50;99.90
32749;DHT22;19119;52.474;13.710;2023-12-20T00:42:35;6.60;99.90
32749;DHT22;19119;52.474;13.710;2023-12-20T00:45:04;6.50;99.90
32749;DHT22;19119;52.474;13.710;2023-12-20T00:47:30;6.60;99.90
32749;DHT22;19119;52.474;13.710;2023-12-20T00:49:55;6.60;99.90
32749;DHT22;19119;52.474;13.710;2023-12-20T00:52:21;6.60;99.90
32749;DHT22;19119;52.474;13.710;2023-12-20T00:54:48;6.60;99.90
32749;DHT22;19119;52.474;13.710;2023-12-20T00:57:13;6.60;99.90
32749;DHT22;19119;52.474;13.710;2023-12-20T00:59:39;6.60;99.90
32749;DHT22;19119;52.474;13.710;2023-12-20T01:02:04;6.60;99.90
32749;DHT22;19119;52.474;13.710;2023-12-20T01:04:29;6.60;99.90
32749;DHT22;19119;52.474;13.710;2023-12-20T01:06:55;6.60;99.90
32749;DHT22;19119;52.474;13.710;2023-12-20T01:09:20;6.50;99.90
32749;DHT22;19119;52.474;13.710;2023-12-20T01:11:48;6.60;99.90
32749;DHT22;19119;52.474;13.710;2023-12-20T01:14:14;6.50;99.90
32749;DHT22;19119;52.474;13.710;2023-12-20T01:16:39;6.50;99.90
32749;DHT22;19119;52.474;13.710;2023-12-20T01:19:05;6.50;99.90
32749;DHT22;19119;52.474;13.710;2023-12-20T01:21:30;6.50;99.90
32749;DHT22;19119;52.474;13.710;2023-12-20T01:23:56;6.60;99.90
32749;DHT22;19119;52.474;13.710;2023-12-20T01:26:21;6.60;99.90
32749;DHT22;19119;52.474;13.710;2023-12-20T01:28:46;6.60;99.90
32749;DHT22;19119;52.474;13.710;2023-12-20T01:31:12;6.70;99.90
32749;DHT22;19119;52.474;13.710;2023-12-20T01:33:37;6.60;99.90
32749;DHT22;19119;52.474;13.710;2023-12-20T01:36:03;6.60;99.90
32749;DHT22;19119;52.474;13.710;2023-12-20T01:38:29;6.60;99.90
32749;DHT22;19119;52.474;13.710;2023-12-20T01:40:54;6.50;99.90
32749;DHT22;19119;52.474;13.710;2023-12-20T01:43:19;6.60;99.90
32749;DHT22;19119;52.474;13.710;2023-12-20T01:45:45;6.60;99.90
32749;DHT22;19119;52.474;13.710;2023-12-20T01:48:11;6.50;99.90
32749;DHT22;19119;52.474;13.710;2023-12-20T01:50:37;6.60;99.90
32749;DHT22;19119;52.474;13.710;2023-12-20T01:53:03;6.60;99.90
32749;DHT22;19119;52.474;13.710;2023-12-20T01:55:32;6.70;99.90
32749;DHT22;19119;52.474;13.710;2023-12-20T01:57:59;6.60;99.90
32749;DHT22;19119;52.474;13.710;2023-12-20T02:00:26;6.60;99.90
32749;DHT22;19119;52.474;13.710;2023-12-20T02:02:53;6.60;99.90
32749;DHT22;19119;52.474;13.710;2023-12-20T02:05:18;6.60;99.90
32749;DHT22;19119;52.474;13.710;2023-12-20T02:07:44;6.60;99.90
32749;DHT22;19119;52.474;13.710;2023-12-20T02:10:10;6.60;99.90
32749;DHT22;19119;52.474;13.710;2023-12-20T02:12:36;6.60;99.90
32749;DHT22;19119;52.474;13.710;2023-12-20T02:15:01;6.60;99.90
32749;DHT22;19119;52.474;13.710;2023-12-20T02:17:27;6.60;99.90
32749;DHT22;19119;52.474;13.710;2023-12-20T02:19:52;6.70;99.90
32749;DHT22;19119;52.474;13.710;2023-12-20T02:22:18;6.80;99.90
32749;DHT22;19119;52.474;13.710;2023-12-20T02:24:43;6.80;99.90
32749;DHT22;19119;52.474;13.710;2023-12-20T02:27:09;6.80;99.90
32749;DHT22;19119;52.474;13.710;2023-12-20T02:29:34;6.80;99.90
32749;DHT22;19119;52.474;13.710;2023-12-20T02:32:00;6.80;99.90
32749;DHT22;19119;52.474;13.710;2023-12-20T02:34:26;6.80;99.90
32749;DHT22;19119;52.474;13.710;2023-12-20T02:36:51;6.90;99.90
32749;DHT22;19119;52.474;13.710;2023-12-20T02:39:17;6.80;99.90
32749;DHT22;19119;52.474;13.710;2023-12-20T02:41:43;6.80;99.90
32749;DHT22;19119;52.474;13.710;2023-12-20T02:44:08;6.70;99.90
32749;DHT22;19119;52.474;13.710;2023-12-20T02:46:34;6.70;99.90
32749;DHT22;19119;52.474;13.710;2023-12-20T02:49:00;6.70;99.90
32749;DHT22;19119;52.474;13.710;2023-12-20T02:51:25;6.70;99.90
32749;DHT22;19119;52.474;13.710;2023-12-20T02:53:52;6.80;99.90
32749;DHT22;19119;52.474;13.710;2023-12-20T02:56:17;6.80;99.90
32749;DHT22;19119;52.474;13.710;2023-12-20T02:58:43;6.80;99.90
32749;DHT22;19119;52.474;13.710;2023-12-20T03:01:08;6.90;99.90
32749;DHT22;19119;52.474;13.710;2023-12-20T03:03:34;6.90;99.90
32749;DHT22;19119;52.474;13.710;2023-12-20T03:05:59;6.90;99.90
32749;DHT22;19119;52.474;13.710;2023-12-20T03:08:25;6.90;99.90
32749;DHT22;19119;52.474;13.710;2023-12-20T03:10:50;7.00;99.90
32749;DHT22;19119;52.474;13.710;2023-12-20T03:13:15;7.10;99.90
32749;DHT22;19119;52.474;13.710;2023-12-20T03:15:41;7.10;99.90
32749;DHT22;19119;52.474;13.710;2023-12-20T03:18:06;7.10;99.90
32749;DHT22;19119;52.474;13.710;2023-12-20T03:20:32;7.00;99.90
32749;DHT22;19119;52.474;13.710;2023-12-20T03:23:02;7.00;99.90
32749;DHT22;19119;52.474;13.710;2023-12-20T03:25:27;7.00;99.90
32749;DHT22;19119;52.474;13.710;2023-12-20T03:27:53;7.10;99.90
32749;DHT22;19119;52.474;13.710;2023-12-20T03:30:18;7.00;99.90
32749;DHT22;19119;52.474;13.710;2023-12-20T03:32:44;7.00;99.90
32749;DHT22;19119;52.474;13.710;2023-12-20T03:35:09;7.00;99.90
32749;DHT22;19119;52.474;13.710;2023-12-20T03:37:35;6.90;99.90
32749;DHT22;19119;52.474;13.710;2023-12-20T03:40:01;7.10;99.90
32749;DHT22;19119;52.474;13.710;2023-12-20T03:42:26;7.00;99.90
32749;DHT22;19119;52.474;13.710;2023-12-20T03:44:52;7.10;99.90
32749;DHT22;19119;52.474;13.710;2023-12-20T03:47:17;7.10;99.90
32749;DHT22;19119;52.474;13.710;2023-12-20T03:49:43;7.10;99.90
32749;DHT22;19119;52.474;13.710;2023-12-20T03:52:08;7.10;99.90
32749;DHT22;19119;52.474;13.710;2023-12-20T03:54:34;7.10;99.90
32749;DHT22;19119;52.474;13.710;2023-12-20T03:57:00;7.10;99.90
32749;DHT22;19119;52.474;13.710;2023-12-20T03:59:25;7.00;99.90
32749;DHT22;19119;52.474;13.710;2023-12-20T04:01:51;7.00;99.90
32749;DHT22;19119;52.474;13.710;2023-12-20T04:04:16;6.90;99.90
32749;DHT22;19119;52.474;13.710;2023-12-20T04:06:41;6.90;99.90
32749;DHT22;19119;52.474;13.710;2023-12-20T04:09:07;6.90;99.90
32749;DHT22;19119;52.474;13.710;2023-12-20T04:11:34;6.80;99.90
32749;DHT22;19119;52.474;13.710;2023-12-20T04:14:00;6.80;99.90
32749;DHT22;19119;52.474;13.710;2023-12-20T04:16:26;6.80;99.90
32749;DHT22;19119;52.474;13.710;2023-12-20T04:18:51;6.70;99.90
32749;DHT22;19119;52.474;13.710;2023-12-20T04:21:17;6.70;99.90
32749;DHT22;19119;52.474;13.710;2023-12-20T04:23:43;6.60;99.90
32749;DHT22;19119;52.474;13.710;2023-12-20T04:26:08;6.70;99.90
32749;DHT22;19119;52.474;13.710;2023-12-20T04:28:34;6.70;99.90
32749;DHT22;19119;52.474;13.710;2023-12-20T04:30:59;6.80;99.90
32749;DHT22;19119;52.474;13.710;2023-12-20T04:33:25;6.80;99.90
32749;DHT22;19119;52.474;13.710;2023-12-20T04:35:50;6.80;99.90
32749;DHT22;19119;52.474;13.710;2023-12-20T04:38:16;6.80;99.90
32749;DHT22;19119;52.474;13.710;2023-12-20T04:40:42;6.70;99.90
32749;DHT22;19119;52.474;13.710;2023-12-20T04:43:07;6.70;99.90
32749;DHT22;19119;52.474;13.710;2023-12-20T04:45:34;6.70;99.90
32749;DHT22;19119;52.474;13.710;2023-12-20T04:47:59;6.70;99.90
32749;DHT22;19119;52.474;13.710;2023-12-20T04:50:25;6.80;99.90
32749;DHT22;19119;52.474;13.710;2023-12-20T04:52:50;6.70;99.90
32749;DHT22;19119;52.474;13.710;2023-12-20T04:55:16;6.70;99.90
32749;DHT22;19119;52.474;13.710;2023-12-20T04:57:41;6.70;99.90
32749;DHT22;19119;52.474;13.710;2023-12-20T05:00:08;6.60;99.90
32749;DHT22;19119;52.474;13.710;2023-12-20T05:02:34;6.60;99.90
32749;DHT22;19119;52.474;13.710;2023-12-20T05:05:00;6.50;99.90
32749;DHT22;19119;52.474;13.710;2023-12-20T05:07:25;6.50;99.90
32749;DHT22;19119;52.474;13.710;2023-12-20T05:09:50;6.40;99.90
32749;DHT22;19119;52.474;13.710;2023-12-20T05:12:16;6.40;99.90
32749;DHT22;19119;52.474;13.710;2023-12-20T05:14:41;6.40;99.90
32749;DHT22;19119;52.474;13.710;2023-12-20T05:17:07;6.30;99.90
32749;DHT22;19119;52.474;13.710;2023-12-20T05:19:32;6.30;99.90
32749;DHT22;19119;52.474;13.710;2023-12-20T05:22:00;6.30;99.90
32749;DHT22;19119;52.474;13.710;2023-12-20T05:24:26;6.30;99.90
32749;DHT22;19119;52.474;13.710;2023-12-20T05:26:51;6.30;99.90
32749;DHT22;19119;52.474;13.710;2023-12-20T05:29:17;6.30;99.90
32749;DHT22;19119;52.474;13.710;2023-12-20T05:31:43;6.30;99.90
32749;DHT22;19119;52.474;13.710;2023-12-20T05:34:08;6.30;99.90
32749;DHT22;19119;52.474;13.710;2023-12-20T05:36:34;6.30;99.90
32749;DHT22;19119;52.474;13.710;2023-12-20T05:38:59;6.30;99.90
32749;DHT22;19119;52.474;13.710;2023-12-20T05:41:24;6.30;99.90
32749;DHT22;19119;52.474;13.710;2023-12-20T05:43:50;6.30;99.90
32749;DHT22;19119;52.474;13.710;2023-12-20T05:46:15;6.30;99.90
32749;DHT22;19119;52.474;13.710;2023-12-20T05:48:41;6.30;99.90
32749;DHT22;19119;52.474;13.710;2023-12-20T05:51:06;6.30;99.90
32749;DHT22;19119;52.474;13.710;2023-12-20T05:53:32;6.30;99.90
32749;DHT22;19119;52.474;13.710;2023-12-20T05:55:57;6.20;99.90
32749;DHT22;19119;52.474;13.710;2023-12-20T05:58:22;6.20;99.90
32749;DHT22;19119;52.474;13.710;2023-12-20T06:00:48;6.20;99.90
32749;DHT22;19119;52.474;13.710;2023-12-20T06:03:14;6.10;99.90
32749;DHT22;19119;52.474;13.710;2023-12-20T06:05:39;6.00;99.90
32749;DHT22;19119;52.474;13.710;2023-12-20T06:08:05;6.00;99.90
32749;DHT22;19119;52.474;13.710;2023-12-20T06:10:31;6.00;99.90
32749;DHT22;19119;52.474;13.710;2023-12-20T06:12:56;5.90;99.90
32749;DHT22;19119;52.474;13.710;2023-12-20T06:15:23;5.80;99.90
32749;DHT22;19119;52.474;13.710;2023-12-20T06:17:49;5.70;99.90
32749;DHT22;19119;52.474;13.710;2023-12-20T06:20:15;5.70;99.90
32749;DHT22;19119;52.474;13.710;2023-12-20T06:22:40;5.60;99.90
32749;DHT22;19119;52.474;13.710;2023-12-20T06:25:05;5.50;99.90
32749;DHT22;19119;52.474;13.710;2023-12-20T06:27:32;5.50;99.90
32749;DHT22;19119;52.474;13.710;2023-12-20T06:29:57;5.50;99.90
32749;DHT22;19119;52.474;13.710;2023-12-20T06:32:23;5.40;99.90
32749;DHT22;19119;52.474;13.710;2023-12-20T06:34:49;5.40;99.90
32749;DHT22;19119;52.474;13.710;2023-12-20T06:37:15;5.40;99.90
32749;DHT22;19119;52.474;13.710;2023-12-20T06:39:40;5.40;99.90
32749;DHT22;19119;52.474;13.710;2023-12-20T06:42:05;5.40;99.90
32749;DHT22;19119;52.474;13.710;2023-12-20T06:44:31;5.40;99.90
32749;DHT22;19119;52.474;13.710;2023-12-20T06:46:57;5.30;99.90
32749;DHT22;19119;52.474;13.710;2023-12-20T06:49:22;5.30;99.90
32749;DHT22;19119;52.474;13.710;2023-12-20T06:51:47;5.20;99.90
32749;DHT22;19119;52.474;13.710;2023-12-20T06:54:13;5.20;99.90
32749;DHT22;19119;52.474;13.710;2023-12-20T06:56:38;5.20;99.90
32749;DHT22;19119;52.474;13.710;2023-12-20T06:59:04;5.20;99.90
32749;DHT22;19119;52.474;13.710;2023-12-20T07:01:29;5.20;99.90
32749;DHT22;19119;52.474;13.710;2023-12-20T07:03:54;5.20;99.90
32749;DHT22;19119;52.474;13.710;2023-12-20T07:06:20;5.20;99.90
32749;DHT22;19119;52.474;13.710;2023-12-20T07:08:46;5.20;99.90
32749;DHT22;19119;52.474;13.710;2023-12-20T07:11:11;5.20;99.90
32749;DHT22;19119;52.474;13.710;2023-12-20T07:13:37;5.20;99.90
32749;DHT22;19119;52.474;13.710;2023-12-20T07:16:02;5.10;99.90
32749;DHT22;19119;52.474;13.710;2023-12-20T07:18:28;5.10;99.90
32749;DHT22;19119;52.474;13.710;2023-12-20T07:20:54;5.10;99.90
32749;DHT22;19119;52.474;13.710;2023-12-20T07:23:20;5.10;99.90
32749;DHT22;19119;52.474;13.710;2023-12-20T07:25:46;5.10;99.90
32749;DHT22;19119;52.474;13.710;2023-12-20T07:28:12;5.20;99.90
32749;DHT22;19119;52.474;13.710;2023-12-20T07:30:37;5.20;99.90
32749;DHT22;19119;52.474;13.710;2023-12-20T07:33:03;5.20;99.90
32749;DHT22;19119;52.474;13.710;2023-12-20T07:35:28;5.20;99.90
32749;DHT22;19119;52.474;13.710;2023-12-20T07:37:54;5.20;99.90
32749;DHT22;19119;52.474;13.710;2023-12-20T07:40:19;5.30;99.90
32749;DHT22;19119;52.474;13.710;2023-12-20T07:42:44;5.30;99.90
32749;DHT22;19119;52.474;13.710;2023-12-20T07:45:10;5.30;99.90
32749;DHT22;19119;52.474;13.710;2023-12-20T07:47:38;5.40;99.90
32749;DHT22;19119;52.474;13.710;2023-12-20T07:50:04;5.40;99.90
32749;DHT22;19119;52.474;13.710;2023-12-20T07:52:29;5.40;99.90
32749;DHT22;19119;52.474;13.710;2023-12-20T07:54:55;5.40;99.90
32749;DHT22;19119;52.474;13.710;2023-12-20T07:57:21;5.40;99.90
32749;DHT22;19119;52.474;13.710;2023-12-20T07:59:46;5.40;99.90
32749;DHT22;19119;52.474;13.710;2023-12-20T08:02:11;5.40;99.90
32749;DHT22;19119;52.474;13.710;2023-12-20T08:04:37;5.40;99.90
32749;DHT22;19119;52.474;13.710;2023-12-20T08:07:03;5.40;99.90
32749;DHT22;19119;52.474;13.710;2023-12-20T08:09:28;5.40;99.90
32749;DHT22;19119;52.474;13.710;2023-12-20T08:11:54;5.50;99.90
32749;DHT22;19119;52.474;13.710;2023-12-20T08:14:19;5.40;99.90
32749;DHT22;19119;52.474;13.710;2023-12-20T08:16:45;5.50;99.90
32749;DHT22;19119;52.474;13.710;2023-12-20T08:19:10;5.50;99.90
32749;DHT22;19119;52.474;13.710;2023-12-20T08:21:36;5.60;99.90
32749;DHT22;19119;52.474;13.710;2023-12-20T08:24:01;5.60;99.90
32749;DHT22;19119;52.474;13.710;2023-12-20T08:26:26;5.60;99.90
32749;DHT22;19119;52.474;13.710;2023-12-20T08:28:52;5.50;99.90
32749;DHT22;19119;52.474;13.710;2023-12-20T08:31:17;5.60;99.90
32749;DHT22;19119;52.474;13.710;2023-12-20T08:33:44;5.60;99.90
32749;DHT22;19119;52.474;13.710;2023-12-20T08:36:09;5.60;99.90
32749;DHT22;19119;52.474;13.710;2023-12-20T08:38:35;5.60;99.90
32749;DHT22;19119;52.474;13.710;2023-12-20T08:41:01;5.60;99.90
32749;DHT22;19119;52.474;13.710;2023-12-20T08:43:28;5.60;99.90
32749;DHT22;19119;52.474;13.710;2023-12-20T08:45:54;5.60;99.90
32749;DHT22;19119;52.474;13.710;2023-12-20T08:48:19;5.70;99.90
32749;DHT22;19119;52.474;13.710;2023-12-20T08:50:44;5.70;99.90
32749;DHT22;19119;52.474;13.710;2023-12-20T08:53:10;5.70;99.90
32749;DHT22;19119;52.474;13.710;2023-12-20T08:55:35;5.80;99.90
32749;DHT22;19119;52.474;13.710;2023-12-20T08:58:01;5.80;99.90
32749;DHT22;19119;52.474;13.710;2023-12-20T09:00:26;5.80;99.90
32749;DHT22;19119;52.474;13.710;2023-12-20T09:02:53;5.90;99.90
32749;DHT22;19119;52.474;13.710;2023-12-20T09:05:19;6.00;99.90
32749;DHT22;19119;52.474;13.710;2023-12-20T09:07:44;6.00;99.90
32749;DHT22;19119;52.474;13.710;2023-12-20T09:10:10;6.10;99.90
32749;DHT22;19119;52.474;13.710;2023-12-20T09:12:35;6.10;99.90
32749;DHT22;19119;52.474;13.710;2023-12-20T09:15:03;6.00;99.90
32749;DHT22;19119;52.474;13.710;2023-12-20T09:17:28;6.10;99.90
32749;DHT22;19119;52.474;13.710;2023-12-20T09:19:54;6.00;99.90
32749;DHT22;19119;52.474;13.710;2023-12-20T09:22:19;6.10;99.90
32749;DHT22;19119;52.474;13.710;2023-12-20T09:24:45;6.10;99.90
32749;DHT22;19119;52.474;13.710;2023-12-20T09:27:10;6.20;99.90
32749;DHT22;19119;52.474;13.710;2023-12-20T09:29:36;6.30;99.90
32749;DHT22;19119;52.474;13.710;2023-12-20T09:32:01;6.40;99.90
32749;DHT22;19119;52.474;13.710;2023-12-20T09:34:26;6.40;99.90
32749;DHT22;19119;52.474;13.710;2023-12-20T09:36:52;6.40;99.90
32749;DHT22;19119;52.474;13.710;2023-12-20T09:39:18;6.30;99.90
32749;DHT22;19119;52.474;13.710;2023-12-20T09:42:05;6.30;99.90
32749;DHT22;19119;52.474;13.710;2023-12-20T09:44:31;6.30;99.90
32749;DHT22;19119;52.474;13.710;2023-12-20T09:46:57;6.40;99.90
32749;DHT22;19119;52.474;13.710;2023-12-20T09:49:23;6.30;99.90
32749;DHT22;19119;52.474;13.710;2023-12-20T09:51:50;6.20;99.90
32749;DHT22;19119;52.474;13.710;2023-12-20T09:54:17;6.20;99.90
32749;DHT22;19119;52.474;13.710;2023-12-20T09:56:42;6.20;99.90
32749;DHT22;19119;52.474;13.710;2023-12-20T09:59:08;6.10;99.90
32749;DHT22;19119;52.474;13.710;2023-12-20T10:01:33;6.10;99.90
32749;DHT22;19119;52.474;13.710;2023-12-20T10:03:59;6.30;99.90
32749;DHT22;19119;52.474;13.710;2023-12-20T10:06:25;6.30;99.90
32749;DHT22;19119;52.474;13.710;2023-12-20T10:08:50;6.30;99.90
32749;DHT22;19119;52.474;13.710;2023-12-20T10:11:16;6.30;99.90
32749;DHT22;19119;52.474;13.710;2023-12-20T10:13:42;6.40;99.90
32749;DHT22;19119;52.474;13.710;2023-12-20T10:16:07;6.40;99.90
32749;DHT22;19119;52.474;13.710;2023-12-20T10:18:33;6.40;99.90
32749;DHT22;19119;52.474;13.710;2023-12-20T10:20:58;6.40;99.90
32749;DHT22;19119;52.474;13.710;2023-12-20T10:23:24;6.40;99.90
32749;DHT22;19119;52.474;13.710;2023-12-20T10:25:59;6.40;99.90
32749;DHT22;19119;52.474;13.710;2023-12-20T10:28:25;6.40;99.90
32749;DHT22;19119;52.474;13.710;2023-12-20T10:30:53;6.30;99.90
32749;DHT22;19119;52.474;13.710;2023-12-20T10:33:24;6.30;99.90
32749;DHT22;19119;52.474;13.710;2023-12-20T10:35:51;6.40;99.90
